Skip to main content

NOAA/GLERL Met Station at Michigan City, IN

Previous 3 Hours (2 minute increments)
See also Previous 5 Days (top of hour)
Jump down to Data
Switch to [English][Metric]
Zoom: Click and drag, Pan: shift-click and drag, Unzoom: double-click, Unzoom All






See also 1-day windrose plot


NOAA/GLERL Met Station at Michigan City, IN

Previous 3 Hours (2 minute increments)
See also Previous 5 Days (top of hour only)
Jump up to Graphs
Switch to [English][Metric]
                  Wind  Wind  Wind   Air   Dew   Rel     Sta   PAR
                   Spd   Gst   Dir  Temp    Pt   Hum    Pres uE/m2/
YYYY-MM-DD   CDT   kts   kts   deg     F     F     %   in Hg   sec
2024-05-28 02:22   6.2   7.8   210  57.9  54.7  89.0   29.16     0
2024-05-28 02:20   6.8   7.6   207  57.9  54.7  89.0   29.15     0
2024-05-28 02:18   5.6   6.8   200  57.9  54.7  89.0   29.15     0
2024-05-28 02:16   6.8   7.8   198  57.9  54.6  88.6   29.15     0
2024-05-28 02:14   6.8   8.0   194  58.1  54.8  88.5   29.15     0
2024-05-28 02:12   7.2   8.2   192  58.1  54.7  88.4   29.15     0
2024-05-28 02:10   8.0   9.3   191  57.9  54.6  88.7   29.15     0
2024-05-28 02:08   8.0   8.9   191  57.9  54.9  89.4   29.15     0
2024-05-28 02:06   7.0   8.0   190  57.7  54.8  89.9   29.15     0
2024-05-28 02:04   6.6   7.6   188  57.7  55.0  90.3   29.15     0
2024-05-28 02:02   6.6   7.2   188  57.7  55.0  90.4   29.15     0
2024-05-28 02:00   6.4   7.0   188  57.7  55.0  90.6   29.15     0
2024-05-28 01:58   6.8   7.6   192  57.6  54.9  90.8   29.15     0
2024-05-28 01:56   6.8   7.8   195  57.6  55.0  91.0   29.15     0
2024-05-28 01:54   7.2   7.8   197  57.6  54.9  90.8   29.15     0
2024-05-28 01:52   7.4   7.8   196  57.6  55.0  91.2   29.16     0
2024-05-28 01:50   7.4   8.2   193  57.6  55.1  91.4   29.15     0
2024-05-28 01:48   7.4   8.0   195  57.4  55.0  91.6   29.16     0
2024-05-28 01:46   7.8   8.7   198  57.4  55.1  92.0   29.16     0
2024-05-28 01:44   7.2   8.0   194  57.2  55.0  92.3   29.16     0
2024-05-28 01:42   6.0   7.2   186  57.2  55.0  92.4   29.16     0
2024-05-28 01:40   5.8   6.4   184  57.4  55.2  92.4   29.16     0
2024-05-28 01:38   5.4   6.0   185  57.4  55.2  92.2   29.16     0
2024-05-28 01:36   5.2   5.6   188  57.6  55.3  92.0   29.16     0
2024-05-28 01:34   4.9   5.4   197  57.6  55.3  92.1   29.16     0
2024-05-28 01:32   4.9   5.2   195  57.7  55.5  92.2   29.16     0
2024-05-28 01:30   4.5   5.2   198  57.7  55.6  92.5   29.16     0
2024-05-28 01:28   4.5   5.1   200  57.7  55.6  92.6   29.16     0
2024-05-28 01:26   3.9   4.9   202  57.7  55.6  92.5   29.16     0
2024-05-28 01:24   3.9   4.7   196  57.7  55.5  92.3   29.15     0
2024-05-28 01:22   4.3   5.1   202  57.7  55.5  92.2   29.16     0
2024-05-28 01:20   4.5   5.1   210  57.9  55.6  92.0   29.16     0
2024-05-28 01:18   3.9   5.2   210  57.9  55.6  91.9   29.16     0
2024-05-28 01:16   4.1   5.4   207  58.1  55.6  91.4   29.16     0
2024-05-28 01:14   5.1   6.0   215  58.5  55.9  91.2   29.16     0
2024-05-28 01:12   5.2   5.8   227  58.3  55.8  91.5   29.16     0
2024-05-28 01:10   4.9   5.6   224  58.1  55.7  91.6   29.16     0
2024-05-28 01:08   4.1   5.1   216  58.1  55.8  91.8   29.16     0
2024-05-28 01:06   4.5   5.1   218  58.3  55.8  91.5   29.16     0
2024-05-28 01:04   4.9   5.4   225  58.3  55.8  91.3   29.16     0
2024-05-28 01:02   4.1   4.7   222  58.3  55.8  91.2   29.16     0
2024-05-28 01:00   4.1   4.5   213  58.1  55.5  91.0   29.16     0
2024-05-28 00:58   4.1   5.1   217  58.1  55.5  90.9   29.16     0
2024-05-28 00:56   5.8   6.8   222  58.1  55.5  91.0   29.16     0
2024-05-28 00:54   6.4   6.8   220  57.9  55.6  91.7   29.16     0
2024-05-28 00:52   5.8   6.4   213  57.7  55.4  91.7   29.16     0
2024-05-28 00:50   5.6   6.0   210  57.6  55.5  92.8   29.16     0
2024-05-28 00:48   6.0   6.6   210  57.4  55.5  93.5   29.16     0
2024-05-28 00:46   6.2   6.8   205  57.4  55.4  93.1   29.16     0
2024-05-28 00:44   6.8   7.2   207  57.4  55.3  92.7   29.16     0
2024-05-28 00:42   6.4   6.8   210  57.6  55.4  92.4   29.16     0
2024-05-28 00:40   5.6   6.8   210  57.6  55.4  92.5   29.16     0
2024-05-28 00:38   5.1   5.6   205  57.6  55.3  92.0   29.16     0
2024-05-28 00:36   4.3   4.7   198  57.6  55.3  92.2   29.16     0
2024-05-28 00:34   4.3   4.5   197  57.6  55.4  92.4   29.16     0
2024-05-28 00:32   3.9   4.1   193  57.7  55.7  92.7   29.16     0
2024-05-28 00:30   3.7   4.3   198  57.9  55.8  92.7   29.16     0
2024-05-28 00:28   3.9   4.3   203  57.9  55.8  92.4   29.16     0
2024-05-28 00:26   3.7   4.3   201  57.9  55.8  92.6   29.16     0
2024-05-28 00:24   4.3   4.9   205  57.9  55.8  92.6   29.16     0
2024-05-28 00:22   4.7   5.2   209  57.9  55.9  92.9   29.16     0
2024-05-28 00:20   4.7   5.2   211  57.9  56.0  93.1   29.16     0
2024-05-28 00:18   4.9   5.1   216  57.7  55.9  93.4   29.16     0
2024-05-28 00:16   3.9   4.9   216  57.7  55.9  93.6   29.16     0
2024-05-28 00:14   3.3   3.7   217  57.6  55.7  93.5   29.16     0
2024-05-28 00:12   3.1   3.5   214  57.6  55.9  94.2   29.15     0
2024-05-28 00:10   2.5   2.9   209  57.6  56.0  94.5   29.15     0
2024-05-28 00:08   2.9   3.1   209  57.6  55.9  94.2   29.16     0
2024-05-28 00:06   3.3   3.7   208  57.6  55.8  93.8   29.15     0
2024-05-28 00:04   3.9   4.5   204  57.6  55.8  93.9   29.15     0
2024-05-28 00:02   4.5   4.7   197  57.6  55.8  93.6   29.15     0
2024-05-28 00:00   4.9   5.6   195  57.9  55.7  92.3   29.15     0
2024-05-27 23:58   5.4   6.0   192  58.1  55.7  91.6   29.15     0
2024-05-27 23:56   5.1   5.8   190  58.1  55.7  91.7   29.15     0
2024-05-27 23:54   4.5   4.7   189  57.9  55.7  92.1   29.15     0
2024-05-27 23:52   4.5   4.9   190  57.7  55.9  93.5   29.15     0
2024-05-27 23:50   4.3   4.9   192  57.6  56.0  94.4   29.15     0
2024-05-27 23:48   4.5   4.9   194  57.6  56.1  94.8   29.15     0
2024-05-27 23:46   4.1   4.7   187  57.7  56.3  94.8   29.15     0
2024-05-27 23:44   5.2   5.8   192  57.7  56.2  94.4   29.15     0
2024-05-27 23:42   6.2   7.0   195  57.9  56.2  93.9   29.16     0
2024-05-27 23:40   5.1   6.0   193  58.3  56.4  93.4   29.15     0
2024-05-27 23:38   4.1   4.9   195  58.3  56.4  93.2   29.16     0
2024-05-27 23:36   4.3   4.9   201  58.5  56.4  92.6   29.15     0
2024-05-27 23:34   4.3   4.7   192  58.3  56.2  92.8   29.15     0
2024-05-27 23:32   4.9   5.4   186  58.3  56.4  93.2   29.15     0
2024-05-27 23:30   5.1   5.4   187  58.8  56.3  91.3   29.15     0
2024-05-27 23:28   4.1   4.5   177  58.6  56.2  91.6   29.15     0
2024-05-27 23:26   4.3   4.7   173  58.5  56.6  93.3   29.15     0
2024-05-27 23:24   4.9   5.1   176  58.5  56.8  94.1   29.15     0
2024-05-27 23:22   4.5   4.9   183  58.8  56.9  93.3   29.15     0